createdAt,value
2017-10-05T00:02:10.240Z,13.50
2017-10-05T00:04:38.433Z,13.50
2017-10-05T00:07:05.889Z,13.50
2017-10-05T00:09:33.330Z,13.50
2017-10-05T00:12:00.781Z,13.50
2017-10-05T00:14:28.218Z,13.50
2017-10-05T00:16:55.648Z,13.50
2017-10-05T00:19:23.082Z,13.50
2017-10-05T00:21:50.508Z,13.50
2017-10-05T00:24:17.950Z,13.50
2017-10-05T00:26:45.396Z,13.50
2017-10-05T00:29:12.831Z,13.50
2017-10-05T00:31:40.257Z,13.50
2017-10-05T00:34:07.680Z,13.50
2017-10-05T00:36:35.117Z,13.50
2017-10-05T00:39:02.549Z,13.50
2017-10-05T00:41:29.983Z,13.50
2017-10-05T00:43:57.409Z,13.50
2017-10-05T00:46:25.617Z,13.50
2017-10-05T00:48:53.040Z,13.50
2017-10-05T00:51:20.482Z,13.50
2017-10-05T00:53:47.916Z,13.50
2017-10-05T00:56:15.350Z,13.50
2017-10-05T00:58:43.544Z,13.50
2017-10-05T01:01:10.968Z,13.50
2017-10-05T01:03:38.405Z,13.50
2017-10-05T01:06:05.843Z,13.50
2017-10-05T01:08:33.282Z,13.50
2017-10-05T01:11:00.704Z,13.50
2017-10-05T01:13:28.153Z,13.50
2017-10-05T01:15:56.353Z,13.50
2017-10-05T01:18:23.777Z,13.50
2017-10-05T01:20:51.216Z,13.50
2017-10-05T01:23:18.640Z,13.50
2017-10-05T01:25:46.067Z,13.50
2017-10-05T01:28:13.496Z,13.50
2017-10-05T01:30:40.932Z,13.50
2017-10-05T01:33:08.358Z,13.50
2017-10-05T01:35:35.816Z,13.50
2017-10-05T01:38:03.220Z,13.50
2017-10-05T01:40:30.670Z,13.50
2017-10-05T01:42:58.105Z,13.50
2017-10-05T01:45:25.550Z,13.40
2017-10-05T01:47:52.986Z,13.50
2017-10-05T01:50:21.184Z,13.50
2017-10-05T01:52:48.615Z,13.40
2017-10-05T01:55:16.819Z,13.50
2017-10-05T01:57:44.255Z,13.40
2017-10-05T02:00:11.697Z,13.50
2017-10-05T02:02:39.124Z,13.50
2017-10-05T02:05:06.566Z,13.40
2017-10-05T02:07:34.000Z,13.50
2017-10-05T02:10:01.445Z,13.40
2017-10-05T02:12:28.868Z,13.40
2017-10-05T02:14:56.313Z,13.40
2017-10-05T02:17:23.749Z,13.40
2017-10-05T02:19:51.184Z,13.40
2017-10-05T02:22:18.617Z,13.40
2017-10-05T02:24:46.062Z,13.40
2017-10-05T02:27:13.497Z,13.40
2017-10-05T02:29:40.944Z,13.40
2017-10-05T02:32:08.376Z,13.40
2017-10-05T02:34:35.817Z,13.40
2017-10-05T02:37:03.249Z,13.40
2017-10-05T02:39:30.677Z,13.40
2017-10-05T02:41:58.868Z,13.40
2017-10-05T02:44:26.321Z,13.40
2017-10-05T02:46:53.781Z,13.40
2017-10-05T02:49:21.223Z,13.40
2017-10-05T02:51:48.656Z,13.40
2017-10-05T02:54:16.864Z,13.40
2017-10-05T02:56:44.297Z,13.40
2017-10-05T02:59:12.512Z,13.40
2017-10-05T03:01:39.941Z,13.40
2017-10-05T03:04:08.164Z,13.40
2017-10-05T03:06:35.596Z,13.30
2017-10-05T03:09:03.037Z,13.40
2017-10-05T03:11:31.244Z,13.30
2017-10-05T03:13:58.672Z,13.30
2017-10-05T03:16:26.892Z,13.30
2017-10-05T03:18:54.312Z,13.30
2017-10-05T03:21:21.754Z,13.30
2017-10-05T03:23:49.193Z,13.30
2017-10-05T03:26:16.629Z,13.20
2017-10-05T03:28:44.056Z,13.20
2017-10-05T03:31:11.503Z,13.20
2017-10-05T03:33:38.936Z,13.20
2017-10-05T03:36:06.397Z,13.20
2017-10-05T03:38:33.827Z,13.20
2017-10-05T03:41:02.037Z,13.20
2017-10-05T03:43:29.456Z,13.20
2017-10-05T03:45:57.659Z,13.20
2017-10-05T03:48:25.084Z,13.30
2017-10-05T03:50:52.534Z,13.30
2017-10-05T03:53:19.972Z,13.30
2017-10-05T03:55:47.420Z,13.30
2017-10-05T03:58:14.849Z,13.30
2017-10-05T04:00:43.052Z,13.30
2017-10-05T04:03:10.486Z,13.30
2017-10-05T04:05:37.921Z,13.30
2017-10-05T04:08:05.353Z,13.30
2017-10-05T04:10:32.802Z,13.30
2017-10-05T04:13:00.229Z,13.30
2017-10-05T04:15:27.661Z,13.30
2017-10-05T04:17:55.088Z,13.30
2017-10-05T04:20:22.537Z,13.30
2017-10-05T04:22:50.732Z,13.30
2017-10-05T04:25:18.168Z,13.30
2017-10-05T04:27:46.371Z,13.30
2017-10-05T04:30:13.818Z,13.30
2017-10-05T04:32:42.009Z,13.30
2017-10-05T04:35:09.440Z,13.30
2017-10-05T04:37:36.888Z,13.30
2017-10-05T04:40:04.368Z,13.30
2017-10-05T04:42:31.788Z,13.30
2017-10-05T04:44:59.216Z,13.40
2017-10-05T04:47:27.415Z,13.40
2017-10-05T04:49:54.849Z,13.40
2017-10-05T04:52:23.062Z,13.40
2017-10-05T04:54:50.490Z,13.40
2017-10-05T04:57:18.700Z,13.40
2017-10-05T04:59:46.145Z,13.40
2017-10-05T05:02:13.591Z,13.40
2017-10-05T05:04:41.781Z,13.40
2017-10-05T05:07:09.237Z,13.40
2017-10-05T05:09:37.428Z,13.50
2017-10-05T05:12:04.877Z,13.50
2017-10-05T05:14:33.069Z,13.50
2017-10-05T05:17:01.279Z,13.50
2017-10-05T05:19:28.705Z,13.50
2017-10-05T05:21:56.921Z,13.60
2017-10-05T05:24:24.352Z,13.60
2017-10-05T05:26:52.549Z,13.60
2017-10-05T05:29:19.972Z,13.60
2017-10-05T05:31:48.250Z,13.60
2017-10-05T05:34:15.672Z,13.60
2017-10-05T05:36:43.117Z,13.60
2017-10-05T05:39:10.550Z,13.60
2017-10-05T05:41:38.759Z,13.60
2017-10-05T05:44:06.192Z,13.60
2017-10-05T05:46:34.389Z,13.60
2017-10-05T05:49:01.820Z,13.60
2017-10-05T05:51:29.261Z,13.60
2017-10-05T05:53:56.704Z,13.60
2017-10-05T05:56:24.148Z,13.60
2017-10-05T05:58:51.580Z,13.60
2017-10-05T06:01:19.791Z,13.60
2017-10-05T06:03:47.228Z,13.60
2017-10-05T06:06:15.428Z,13.70
2017-10-05T06:08:42.857Z,13.70
2017-10-05T06:11:11.078Z,13.80
2017-10-05T06:13:38.500Z,13.70
2017-10-05T06:16:05.942Z,13.80
2017-10-05T06:18:33.381Z,13.80
2017-10-05T06:21:00.821Z,13.90
2017-10-05T06:23:28.263Z,13.90
2017-10-05T06:25:56.457Z,14.10
2017-10-05T06:28:23.901Z,14.00
2017-10-05T06:30:52.093Z,14.10
2017-10-05T06:33:19.528Z,14.10
2017-10-05T06:35:46.962Z,14.10
2017-10-05T06:38:14.405Z,14.20
2017-10-05T06:40:41.837Z,14.20
2017-10-05T06:43:09.280Z,14.20
2017-10-05T06:45:37.476Z,14.30
2017-10-05T06:48:05.689Z,14.30
2017-10-05T06:50:33.120Z,14.30
2017-10-05T06:53:01.329Z,14.40
2017-10-05T06:55:28.761Z,14.40
2017-10-05T06:57:56.969Z,14.50
2017-10-05T07:00:24.404Z,14.50
2017-10-05T07:02:51.845Z,14.50
2017-10-05T07:05:19.271Z,14.50
2017-10-05T07:07:46.711Z,14.60
2017-10-05T07:10:14.141Z,14.60
2017-10-05T07:12:42.353Z,14.50
2017-10-05T07:15:09.781Z,14.50
2017-10-05T07:17:37.995Z,14.60
2017-10-05T07:20:05.421Z,14.60
2017-10-05T07:22:33.635Z,14.60
2017-10-05T07:25:01.060Z,14.60
2017-10-05T07:27:29.259Z,14.60
2017-10-05T07:29:56.688Z,14.70
2017-10-05T07:32:24.124Z,14.70
2017-10-05T07:34:51.564Z,14.70
2017-10-05T07:37:18.996Z,14.70
2017-10-05T07:39:47.184Z,14.80
2017-10-05T07:42:15.401Z,14.80
2017-10-05T07:44:42.835Z,14.80
2017-10-05T07:47:10.276Z,14.90
2017-10-05T07:49:38.481Z,14.90
2017-10-05T07:52:05.920Z,14.90
2017-10-05T07:54:34.120Z,15.00
2017-10-05T07:57:01.558Z,15.00
2017-10-05T07:59:29.770Z,15.00
2017-10-05T08:01:57.220Z,15.00
2017-10-05T08:04:25.404Z,15.00
2017-10-05T08:06:52.848Z,15.10
2017-10-05T08:09:21.041Z,15.10
2017-10-05T08:11:48.485Z,15.10
2017-10-05T08:14:16.694Z,15.10
2017-10-05T08:16:44.112Z,15.10
2017-10-05T08:19:11.560Z,15.10
2017-10-05T08:21:38.996Z,15.20
2017-10-05T08:24:06.444Z,15.20
2017-10-05T08:26:33.865Z,15.20
2017-10-05T08:29:01.317Z,15.20
2017-10-05T08:31:28.736Z,15.30
2017-10-05T08:33:56.184Z,15.30
2017-10-05T08:36:23.616Z,15.30
2017-10-05T08:38:52.052Z,15.30
2017-10-05T08:41:19.492Z,15.30
2017-10-05T08:43:46.930Z,15.30
2017-10-05T08:46:15.125Z,15.40
2017-10-05T08:48:43.337Z,15.30
2017-10-05T08:51:10.761Z,15.30
2017-10-05T08:53:38.956Z,15.40
2017-10-05T08:56:06.385Z,15.40
2017-10-05T08:58:33.823Z,15.40
2017-10-05T09:01:01.256Z,15.40
2017-10-05T09:03:28.701Z,15.30
2017-10-05T09:05:56.896Z,15.30
2017-10-05T09:08:24.351Z,15.30
2017-10-05T09:10:51.776Z,15.30
2017-10-05T09:13:19.221Z,15.30
2017-10-05T09:15:46.662Z,15.30
2017-10-05T09:18:14.092Z,15.30
2017-10-05T09:20:41.517Z,15.30
2017-10-05T09:23:08.965Z,15.30
2017-10-05T09:25:36.401Z,15.30
2017-10-05T09:28:03.840Z,15.30
2017-10-05T09:30:31.269Z,15.30
2017-10-05T09:32:58.708Z,15.30
2017-10-05T09:35:26.145Z,15.30
2017-10-05T09:37:53.585Z,15.30
2017-10-05T09:40:21.781Z,15.30
2017-10-05T09:42:49.228Z,15.40
2017-10-05T09:45:17.485Z,15.40
2017-10-05T09:47:44.928Z,15.30
2017-10-05T09:50:12.353Z,15.30
2017-10-05T09:52:39.792Z,15.40
2017-10-05T09:55:07.977Z,15.40
2017-10-05T09:57:35.413Z,15.40
2017-10-05T10:00:02.853Z,15.40
2017-10-05T10:02:30.283Z,15.30
2017-10-05T10:04:57.724Z,15.30
2017-10-05T10:07:25.913Z,15.30
2017-10-05T10:09:53.349Z,15.30
2017-10-05T10:12:20.774Z,15.30
2017-10-05T10:14:48.208Z,15.30
2017-10-05T10:17:15.644Z,15.30
2017-10-05T10:19:43.853Z,15.20
2017-10-05T10:22:11.276Z,15.20
2017-10-05T10:24:39.499Z,15.10
2017-10-05T10:27:06.914Z,15.10
2017-10-05T10:29:34.349Z,15.10
2017-10-05T10:32:01.781Z,15.00
2017-10-05T10:34:29.229Z,15.00
2017-10-05T10:36:56.656Z,14.90
2017-10-05T10:39:24.092Z,14.90
2017-10-05T10:41:52.300Z,14.70
2017-10-05T10:44:19.748Z,14.80
2017-10-05T10:46:47.173Z,14.80
2017-10-05T10:49:14.619Z,14.70
2017-10-05T10:51:42.044Z,14.70
2017-10-05T10:54:09.484Z,14.70
2017-10-05T10:56:37.688Z,14.70
2017-10-05T10:59:05.125Z,14.70
2017-10-05T11:01:32.563Z,14.70
2017-10-05T11:04:00.009Z,14.70
2017-10-05T11:06:27.465Z,14.70
2017-10-05T11:08:55.665Z,14.60
2017-10-05T11:11:23.194Z,14.60
2017-10-05T11:13:51.394Z,14.50
2017-10-05T11:16:18.822Z,14.50
2017-10-05T11:18:46.257Z,14.50
2017-10-05T11:21:13.681Z,14.50
2017-10-05T11:23:41.123Z,14.40
2017-10-05T11:26:09.316Z,14.40
2017-10-05T11:28:37.533Z,14.40
2017-10-05T11:31:04.973Z,14.30
2017-10-05T11:33:32.412Z,14.30
2017-10-05T11:36:00.620Z,14.30
2017-10-05T11:38:28.077Z,14.30
2017-10-05T11:40:55.497Z,14.30
2017-10-05T11:43:22.933Z,14.20
2017-10-05T11:45:50.374Z,14.20
2017-10-05T11:48:17.801Z,14.10
2017-10-05T11:50:46.014Z,14.10
2017-10-05T11:53:13.440Z,14.00
2017-10-05T11:55:41.655Z,14.00
2017-10-05T11:58:09.089Z,14.00
2017-10-05T12:00:37.296Z,14.00
2017-10-05T12:03:04.734Z,14.00
2017-10-05T12:05:32.936Z,14.10
2017-10-05T12:08:00.365Z,14.00
2017-10-05T12:10:28.606Z,14.10
2017-10-05T12:12:56.001Z,14.00
2017-10-05T12:15:24.207Z,14.00
2017-10-05T12:17:51.638Z,14.00
2017-10-05T12:20:19.072Z,14.00
2017-10-05T12:22:46.506Z,14.00
2017-10-05T12:25:13.948Z,14.00
2017-10-05T12:27:41.385Z,14.00
2017-10-05T12:30:08.822Z,14.00
2017-10-05T12:32:37.022Z,14.10
2017-10-05T12:35:04.468Z,14.00
2017-10-05T12:37:31.902Z,14.10
2017-10-05T12:39:59.345Z,14.20
2017-10-05T12:42:26.772Z,14.30
2017-10-05T12:44:54.214Z,14.40
2017-10-05T12:47:21.645Z,14.50
2017-10-05T12:49:49.094Z,14.60
2017-10-05T12:52:16.521Z,14.70
2017-10-05T12:54:43.956Z,14.80
2017-10-05T12:57:11.395Z,14.90
2017-10-05T12:59:38.829Z,15.00
2017-10-05T13:02:07.027Z,15.10
2017-10-05T13:04:34.465Z,15.10
2017-10-05T13:07:02.663Z,15.20
2017-10-05T13:09:30.120Z,15.30
2017-10-05T13:11:57.549Z,15.30
2017-10-05T13:14:24.977Z,15.50
2017-10-05T13:16:52.408Z,15.50
2017-10-05T13:19:19.841Z,15.60
2017-10-05T13:21:47.280Z,15.60
2017-10-05T13:24:14.713Z,15.70
2017-10-05T13:26:42.153Z,15.80
2017-10-05T13:29:10.344Z,15.90
2017-10-05T13:31:37.785Z,15.90
2017-10-05T13:34:05.208Z,16.00
2017-10-05T13:36:32.649Z,16.00
2017-10-05T13:39:00.075Z,15.90
2017-10-05T13:41:28.283Z,15.90
2017-10-05T13:43:55.712Z,15.90
2017-10-05T13:46:24.909Z,16.00
2017-10-05T13:48:52.333Z,16.00
2017-10-05T13:51:19.777Z,16.10
2017-10-05T13:53:47.208Z,16.10
2017-10-05T13:56:15.408Z,16.30
2017-10-05T13:58:42.833Z,16.30
2017-10-05T14:01:10.275Z,16.40
2017-10-05T14:03:37.706Z,16.40
2017-10-05T14:06:05.157Z,16.30
2017-10-05T14:08:32.592Z,16.30
2017-10-05T14:11:00.788Z,16.20
2017-10-05T14:13:28.222Z,16.20
2017-10-05T14:15:55.656Z,16.20
2017-10-05T14:18:23.089Z,16.10
2017-10-05T14:20:50.533Z,16.20
2017-10-05T14:23:18.741Z,16.10
2017-10-05T14:25:46.178Z,16.10
2017-10-05T14:28:13.604Z,16.20
2017-10-05T14:30:41.045Z,16.30
2017-10-05T14:33:09.237Z,16.50
2017-10-05T14:35:36.676Z,16.50
2017-10-05T14:38:04.134Z,16.50
2017-10-05T14:40:31.605Z,16.50
2017-10-05T14:42:59.049Z,16.50
2017-10-05T14:45:26.503Z,16.60
2017-10-05T14:47:54.040Z,16.60
2017-10-05T14:50:21.525Z,16.50
2017-10-05T14:52:50.201Z,16.30
2017-10-05T14:55:17.647Z,16.30
2017-10-05T14:57:45.069Z,16.30
2017-10-05T15:00:12.501Z,16.20
2017-10-05T15:02:39.942Z,16.20
2017-10-05T15:05:08.531Z,16.20
2017-10-05T15:07:36.726Z,16.20
2017-10-05T15:10:04.916Z,16.10
2017-10-05T15:12:32.349Z,16.10
2017-10-05T15:15:00.561Z,16.00
2017-10-05T15:17:27.992Z,16.00
2017-10-05T15:19:55.422Z,16.00
2017-10-05T15:22:22.869Z,15.90
2017-10-05T15:24:50.317Z,15.90
2017-10-05T15:27:17.745Z,15.80
2017-10-05T15:29:45.958Z,15.70
2017-10-05T15:32:13.407Z,15.70
2017-10-05T15:34:40.837Z,15.70
2017-10-05T15:37:08.264Z,15.60
2017-10-05T15:39:35.705Z,15.60
2017-10-05T15:42:03.151Z,15.50
2017-10-05T15:44:30.607Z,15.50
2017-10-05T15:46:58.796Z,15.40
2017-10-05T15:49:26.231Z,15.30
2017-10-05T15:51:53.662Z,15.30
2017-10-05T15:54:21.088Z,15.30
2017-10-05T15:56:48.521Z,15.20
2017-10-05T15:59:16.716Z,15.10
2017-10-05T16:01:44.921Z,15.10
2017-10-05T16:04:12.355Z,15.10
2017-10-05T16:06:40.561Z,15.00
2017-10-05T16:09:07.984Z,15.00
2017-10-05T16:11:36.177Z,14.90
2017-10-05T16:14:04.378Z,14.90
2017-10-05T16:16:31.816Z,14.80
2017-10-05T16:19:00.038Z,14.80
2017-10-05T16:21:27.483Z,14.80
2017-10-05T16:23:54.917Z,14.80
2017-10-05T16:26:23.129Z,14.80
2017-10-05T16:28:50.556Z,14.70
2017-10-05T16:31:18.757Z,14.70
2017-10-05T16:33:46.206Z,14.60
2017-10-05T16:36:14.396Z,14.60
2017-10-05T16:38:41.834Z,14.60
2017-10-05T16:41:09.277Z,14.60
2017-10-05T16:43:36.725Z,14.60
2017-10-05T16:46:04.188Z,14.50
2017-10-05T16:48:31.629Z,14.40
2017-10-05T16:50:59.059Z,14.40
2017-10-05T16:53:27.252Z,14.40
2017-10-05T16:55:54.688Z,14.40
2017-10-05T16:58:22.137Z,14.40
2017-10-05T17:00:49.596Z,14.30
2017-10-05T17:03:17.025Z,14.30
2017-10-05T17:05:44.452Z,14.30
2017-10-05T17:08:29.222Z,14.30
2017-10-05T17:10:57.417Z,14.20
2017-10-05T17:15:53.272Z,14.20
2017-10-05T17:18:20.717Z,14.20
2017-10-05T17:20:48.160Z,14.10
2017-10-05T17:23:47.174Z,14.10
2017-10-05T17:26:14.595Z,14.10
2017-10-05T17:28:42.041Z,14.00
2017-10-05T17:31:09.485Z,14.00
2017-10-05T17:33:36.909Z,14.00
2017-10-05T17:36:04.341Z,14.00
2017-10-05T17:38:31.768Z,14.00
2017-10-05T17:40:59.209Z,13.90
2017-10-05T17:43:26.632Z,13.90
2017-10-05T17:45:54.838Z,13.90
2017-10-05T17:48:22.265Z,13.90
2017-10-05T17:50:49.701Z,13.90
2017-10-05T17:53:17.136Z,13.90
2017-10-05T17:55:44.584Z,13.90
2017-10-05T17:58:12.014Z,13.90
2017-10-05T18:00:39.442Z,13.90
2017-10-05T18:03:06.872Z,13.80
2017-10-05T18:05:34.308Z,13.80
2017-10-05T18:08:01.724Z,13.80
2017-10-05T18:10:29.157Z,13.80
2017-10-05T18:12:56.601Z,13.80
2017-10-05T18:15:24.809Z,13.80
2017-10-05T18:17:52.267Z,13.80
2017-10-05T18:20:19.705Z,13.80
2017-10-05T18:22:47.932Z,13.80
2017-10-05T18:25:15.453Z,13.80
2017-10-05T18:27:43.650Z,13.70
2017-10-05T18:30:11.080Z,13.70
2017-10-05T18:32:38.538Z,13.70
2017-10-05T18:35:05.968Z,13.60
2017-10-05T18:37:33.392Z,13.60
2017-10-05T18:40:00.825Z,13.60
2017-10-05T18:42:28.250Z,13.60
2017-10-05T18:44:55.681Z,13.60
2017-10-05T18:47:23.121Z,13.60
2017-10-05T18:49:50.597Z,13.50
2017-10-05T18:52:18.805Z,13.40
2017-10-05T18:54:46.289Z,13.40
2017-10-05T18:57:13.728Z,13.40
2017-10-05T18:59:41.156Z,13.30
2017-10-05T19:02:09.370Z,13.30
2017-10-05T19:04:36.788Z,13.30
2017-10-05T19:07:04.232Z,13.30
2017-10-05T19:09:31.673Z,13.30
2017-10-05T19:11:59.134Z,13.20
2017-10-05T19:14:26.571Z,13.20
2017-10-05T19:16:54.007Z,13.20
2017-10-05T19:19:22.213Z,13.10
2017-10-05T19:21:49.678Z,13.10
2017-10-05T19:24:17.902Z,13.10
2017-10-05T19:26:45.334Z,13.00
2017-10-05T19:29:12.783Z,13.00
2017-10-05T19:31:40.225Z,13.00
2017-10-05T19:34:08.434Z,12.90
2017-10-05T19:36:35.870Z,13.00
2017-10-05T19:39:04.106Z,12.90
2017-10-05T19:41:31.537Z,12.90
2017-10-05T19:43:58.972Z,12.90
2017-10-05T19:46:27.182Z,12.90
2017-10-05T19:48:54.610Z,12.90
2017-10-05T19:51:22.826Z,12.90
2017-10-05T19:53:50.253Z,12.80
2017-10-05T19:56:18.469Z,12.80
2017-10-05T19:58:45.895Z,12.80
2017-10-05T20:01:14.097Z,12.80
2017-10-05T20:03:41.530Z,12.80
2017-10-05T20:06:09.770Z,12.80
2017-10-05T20:08:37.202Z,12.70
2017-10-05T20:11:04.642Z,12.70
2017-10-05T20:13:32.855Z,12.60
2017-10-05T20:16:00.830Z,12.60
2017-10-05T20:18:43.150Z,12.60
2017-10-05T20:21:16.230Z,12.60
2017-10-05T20:23:43.672Z,12.50
2017-10-05T20:26:31.828Z,12.50
2017-10-05T20:29:05.002Z,12.40
2017-10-05T20:31:34.998Z,12.40
2017-10-05T20:34:03.211Z,12.40
2017-10-05T20:36:30.672Z,12.40
2017-10-05T20:38:58.097Z,12.40
2017-10-05T20:41:26.301Z,12.40
2017-10-05T20:43:54.481Z,12.40
2017-10-05T20:46:21.914Z,12.30
2017-10-05T20:48:49.353Z,12.30
2017-10-05T20:51:16.795Z,12.20
2017-10-05T20:53:44.262Z,12.20
2017-10-05T20:56:11.689Z,12.20
2017-10-05T20:58:39.170Z,12.20
2017-10-05T21:01:06.610Z,12.20
2017-10-05T21:03:34.062Z,12.20
2017-10-05T21:06:02.274Z,12.10
2017-10-05T21:08:29.706Z,12.10
2017-10-05T21:10:57.918Z,12.00
2017-10-05T21:13:25.358Z,12.00
2017-10-05T21:15:52.805Z,12.00
2017-10-05T21:18:21.011Z,12.00
2017-10-05T21:20:48.479Z,11.90
2017-10-05T21:23:15.905Z,12.00
2017-10-05T21:25:44.114Z,12.00
2017-10-05T21:28:11.569Z,12.00
2017-10-05T21:30:39.765Z,12.00
2017-10-05T21:33:07.269Z,12.00
2017-10-05T21:35:34.705Z,11.90
2017-10-05T21:38:02.154Z,11.90
2017-10-05T21:40:29.586Z,11.90
2017-10-05T21:42:57.795Z,11.90
2017-10-05T21:45:25.230Z,11.90
2017-10-05T21:47:53.449Z,11.80
2017-10-05T21:50:21.672Z,11.80
2017-10-05T21:52:49.107Z,11.80
2017-10-05T21:55:16.554Z,11.80
2017-10-05T21:57:44.174Z,11.80
2017-10-05T22:00:11.641Z,11.80
2017-10-05T22:02:39.837Z,11.80
2017-10-05T22:05:07.282Z,11.80
2017-10-05T22:07:35.477Z,11.90
2017-10-05T22:10:02.922Z,11.90
2017-10-05T22:12:31.125Z,11.90
2017-10-05T22:14:58.582Z,11.90
2017-10-05T22:17:26.017Z,11.90
2017-10-05T22:19:53.457Z,11.90
2017-10-05T22:22:20.901Z,11.90
2017-10-05T22:24:48.343Z,11.80
2017-10-05T22:27:15.782Z,11.80
2017-10-05T22:29:43.990Z,11.80
2017-10-05T22:32:11.448Z,11.80
2017-10-05T22:34:38.882Z,11.70
2017-10-05T22:37:07.094Z,11.70
2017-10-05T22:39:34.533Z,11.70
2017-10-05T22:42:02.738Z,11.70
2017-10-05T22:44:30.177Z,11.70
2017-10-05T22:46:57.617Z,11.70
2017-10-05T22:49:25.058Z,11.60
2017-10-05T22:51:52.489Z,11.60
2017-10-05T22:54:19.929Z,11.60
2017-10-05T22:56:47.367Z,11.60
2017-10-05T22:59:14.822Z,11.60
2017-10-05T23:01:42.271Z,11.60
2017-10-05T23:04:09.710Z,11.60
2017-10-05T23:06:37.162Z,11.60
2017-10-05T23:09:04.606Z,11.60
2017-10-05T23:11:32.054Z,11.50
2017-10-05T23:14:00.260Z,11.50
2017-10-05T23:16:27.697Z,11.50
2017-10-05T23:18:55.897Z,11.50
2017-10-05T23:21:23.333Z,11.50
2017-10-05T23:23:51.547Z,11.50
2017-10-05T23:26:18.981Z,11.40
2017-10-05T23:28:47.193Z,11.40
2017-10-05T23:31:14.637Z,11.40
2017-10-05T23:33:42.086Z,11.40
2017-10-05T23:36:10.285Z,11.40
2017-10-05T23:38:37.728Z,11.30
2017-10-05T23:41:05.931Z,11.30
2017-10-05T23:43:33.375Z,11.30
2017-10-05T23:46:00.811Z,11.30
2017-10-05T23:48:28.249Z,11.20
2017-10-05T23:50:55.686Z,11.20
2017-10-05T23:53:23.135Z,11.20
2017-10-05T23:55:50.582Z,11.20
2017-10-05T23:58:18.782Z,11.10
